createdAt,value
2019-04-05T00:00:13.854Z,6.45
2019-04-05T00:02:43.319Z,6.47
2019-04-05T00:05:13.391Z,6.48
2019-04-05T00:07:42.859Z,6.49
2019-04-05T00:10:12.756Z,6.52
2019-04-05T00:12:42.283Z,6.53
2019-04-05T00:15:15.776Z,6.56
2019-04-05T00:17:43.243Z,6.58
2019-04-05T00:20:12.793Z,6.61
2019-04-05T00:22:42.240Z,6.63
2019-04-05T00:25:11.789Z,6.64
2019-04-05T00:27:41.238Z,6.64
2019-04-05T00:30:11.097Z,6.67
2019-04-05T00:32:40.569Z,6.69
2019-04-05T00:35:10.175Z,6.70
2019-04-05T00:37:39.655Z,6.73
2019-04-05T00:40:10.572Z,6.76
2019-04-05T00:42:39.992Z,6.79
2019-04-05T00:45:09.993Z,6.81
2019-04-05T00:47:39.475Z,6.86
2019-04-05T00:50:09.529Z,6.88
2019-04-05T00:52:39.159Z,6.91
2019-04-05T00:55:09.660Z,6.92
2019-04-05T00:57:39.210Z,6.95
2019-04-05T01:00:09.082Z,6.95
2019-04-05T01:02:38.632Z,6.96
2019-04-05T01:05:08.206Z,6.98
2019-04-05T01:07:37.799Z,6.99
2019-04-05T01:10:09.564Z,7.00
2019-04-05T01:12:41.395Z,7.02
2019-04-05T01:15:12.635Z,7.04
2019-04-05T01:17:42.734Z,7.06
2019-04-05T01:20:14.442Z,7.06
2019-04-05T01:22:45.484Z,7.09
2019-04-05T01:25:15.113Z,7.10
2019-04-05T01:27:44.791Z,7.12
2019-04-05T01:30:17.480Z,7.14
2019-04-05T01:32:48.020Z,7.16
2019-04-05T01:35:17.619Z,7.19
2019-04-05T01:37:47.661Z,7.20
2019-04-05T01:40:17.443Z,7.21
2019-04-05T01:42:47.676Z,7.22
2019-04-05T01:45:17.227Z,7.23
2019-04-05T01:47:46.682Z,7.23
2019-04-05T01:50:16.298Z,7.24
2019-04-05T01:52:46.365Z,7.24
2019-04-05T01:55:16.108Z,7.26
2019-04-05T01:57:45.610Z,7.28
2019-04-05T02:00:15.762Z,7.28
2019-04-05T02:02:45.614Z,7.28
2019-04-05T02:05:15.560Z,7.29
2019-04-05T02:07:45.158Z,7.29
2019-04-05T02:10:16.870Z,7.30
2019-04-05T02:12:46.470Z,7.30
2019-04-05T02:15:28.648Z,7.31
2019-04-05T02:17:59.200Z,7.32
2019-04-05T02:20:28.839Z,7.33
2019-04-05T02:22:58.419Z,7.34
2019-04-05T02:25:28.034Z,7.33
2019-04-05T02:27:57.553Z,7.34
2019-04-05T02:30:27.582Z,7.35
2019-04-05T02:32:57.190Z,7.36
2019-04-05T02:35:27.225Z,7.37
2019-04-05T02:37:56.861Z,7.38
2019-04-05T02:40:27.720Z,7.38
2019-04-05T02:43:00.287Z,7.39
2019-04-05T02:45:32.831Z,7.40
2019-04-05T02:48:05.435Z,7.39
2019-04-05T02:50:38.213Z,7.38
2019-04-05T02:53:10.222Z,7.38
2019-04-05T02:55:41.916Z,7.37
2019-04-05T02:58:13.512Z,7.37
2019-04-05T03:00:44.692Z,7.37
2019-04-05T03:03:15.174Z,7.35
2019-04-05T03:05:47.112Z,7.36
2019-04-05T03:08:17.857Z,7.35
2019-04-05T03:11:03.595Z,7.35
2019-04-05T03:13:36.575Z,7.35
2019-04-05T03:16:10.769Z,7.34
2019-04-05T03:18:44.994Z,7.33
2019-04-05T03:21:16.818Z,7.33
2019-04-05T03:23:47.313Z,7.32
2019-04-05T03:26:19.498Z,7.33
2019-04-05T03:28:52.805Z,7.33
2019-04-05T03:31:24.996Z,7.34
2019-04-05T03:33:54.100Z,7.32
2019-04-05T03:36:24.154Z,7.31
2019-04-05T03:38:54.166Z,7.31
2019-04-05T03:41:24.374Z,7.31
2019-04-05T03:43:54.012Z,7.30
2019-04-05T03:46:23.535Z,7.29
2019-04-05T03:48:53.050Z,7.29
2019-04-05T03:51:22.593Z,7.28
2019-04-05T03:53:52.281Z,7.29
2019-04-05T03:56:21.889Z,7.29
2019-04-05T03:58:51.617Z,7.27
2019-04-05T04:01:21.158Z,7.27
2019-04-05T04:03:50.881Z,7.25
2019-04-05T04:06:20.397Z,7.25
2019-04-05T04:08:49.917Z,7.23
2019-04-05T04:11:19.528Z,7.22
2019-04-05T04:13:49.718Z,7.21
2019-04-05T04:16:19.704Z,7.20
2019-04-05T04:18:50.146Z,7.20
2019-04-05T04:21:31.783Z,7.21
2019-04-05T04:24:01.604Z,7.21
2019-04-05T04:26:31.898Z,7.21
2019-04-05T04:29:01.454Z,7.21
2019-04-05T04:31:31.439Z,7.22
2019-04-05T04:34:01.458Z,7.20
2019-04-05T04:36:31.294Z,7.20
2019-04-05T04:39:01.055Z,7.20
2019-04-05T04:41:32.138Z,7.20
2019-04-05T04:44:02.035Z,7.20
2019-04-05T04:46:32.229Z,7.20
2019-04-05T04:49:02.409Z,7.19
2019-04-05T04:51:32.725Z,7.21
2019-04-05T04:54:02.412Z,7.20
2019-04-05T04:56:32.318Z,7.19
2019-04-05T04:59:02.108Z,7.18
2019-04-05T05:01:31.730Z,7.18
2019-04-05T05:04:02.327Z,7.17
2019-04-05T05:06:32.037Z,7.17
2019-04-05T05:09:01.959Z,7.16
2019-04-05T05:11:31.658Z,7.15
2019-04-05T05:14:01.667Z,7.15
2019-04-05T05:16:31.293Z,7.13
2019-04-05T05:19:01.428Z,7.14
2019-04-05T05:21:31.212Z,7.13
2019-04-05T05:24:01.095Z,7.12
2019-04-05T05:26:31.101Z,7.12
2019-04-05T05:29:00.894Z,7.13
2019-04-05T05:31:30.644Z,7.12
2019-04-05T05:34:00.622Z,7.11
2019-04-05T05:36:30.184Z,7.11
2019-04-05T05:38:59.861Z,7.11
2019-04-05T05:41:29.297Z,7.10
2019-04-05T05:43:58.838Z,7.09
2019-04-05T05:46:28.452Z,7.06
2019-04-05T05:48:57.979Z,7.07
2019-04-05T05:51:27.779Z,7.08
2019-04-05T05:53:57.300Z,7.10
2019-04-05T05:56:26.862Z,7.11
2019-04-05T05:58:59.428Z,7.13
2019-04-05T06:01:27.963Z,7.16
2019-04-05T06:03:57.514Z,7.20
2019-04-05T06:06:27.132Z,7.24
2019-04-05T06:08:56.583Z,7.28
2019-04-05T06:11:26.065Z,7.31
2019-04-05T06:13:55.517Z,7.35
2019-04-05T06:16:46.612Z,7.39
2019-04-05T06:19:15.603Z,7.44
2019-04-05T06:21:45.050Z,7.50
2019-04-05T06:24:14.531Z,7.55
2019-04-05T06:26:43.981Z,7.59
2019-04-05T06:29:13.468Z,7.66
2019-04-05T06:31:43.046Z,7.75
2019-04-05T06:34:12.495Z,7.81
2019-04-05T06:36:42.162Z,7.89
2019-04-05T06:39:11.740Z,7.96
2019-04-05T06:41:41.202Z,8.04
2019-04-05T06:44:10.693Z,8.12
2019-04-05T06:46:40.144Z,8.20
2019-04-05T06:49:09.622Z,8.26
2019-04-05T06:51:39.110Z,8.34
2019-04-05T06:54:08.557Z,8.42
2019-04-05T06:56:38.184Z,8.49
2019-04-05T06:59:07.632Z,8.57
2019-04-05T07:01:37.232Z,8.65
2019-04-05T07:04:06.892Z,8.73
2019-04-05T07:06:36.345Z,8.81
2019-04-05T07:09:07.474Z,8.88
2019-04-05T07:11:36.968Z,8.95
2019-04-05T07:14:06.651Z,9.02
2019-04-05T07:16:36.258Z,9.10
2019-04-05T07:19:05.889Z,9.17
2019-04-05T07:21:35.360Z,9.24
2019-04-05T07:24:04.964Z,9.32
2019-04-05T07:26:34.437Z,9.40
2019-04-05T07:29:03.974Z,9.49
2019-04-05T07:31:33.499Z,9.57
2019-04-05T07:34:02.996Z,9.67
2019-04-05T07:36:32.463Z,9.76
2019-04-05T07:39:01.917Z,9.87
2019-04-05T07:41:31.900Z,9.95
2019-04-05T07:44:01.520Z,10.05
2019-04-05T07:46:31.085Z,10.15
2019-04-05T07:49:00.551Z,10.22
2019-04-05T07:51:30.042Z,10.29
2019-04-05T07:53:59.501Z,10.36
2019-04-05T07:56:28.985Z,10.43
2019-04-05T07:58:58.524Z,10.50
2019-04-05T08:01:28.154Z,10.59
2019-04-05T08:03:58.194Z,10.68
2019-04-05T08:06:28.625Z,10.75
2019-04-05T08:09:05.938Z,10.83
2019-04-05T08:11:36.234Z,10.90
2019-04-05T08:14:06.188Z,10.98
2019-04-05T08:16:35.740Z,11.06
2019-04-05T08:19:05.346Z,11.15
2019-04-05T08:21:34.809Z,11.22
2019-04-05T08:24:04.514Z,11.32
2019-04-05T08:26:34.654Z,11.40
2019-04-05T08:29:04.292Z,11.47
2019-04-05T08:31:33.786Z,11.55
2019-04-05T08:34:03.275Z,11.63
2019-04-05T08:36:32.898Z,11.71
2019-04-05T08:39:02.412Z,11.75
2019-04-05T08:41:31.902Z,11.80
2019-04-05T08:44:01.400Z,11.84
2019-04-05T08:46:30.940Z,11.88
2019-04-05T08:49:10.129Z,11.92
2019-04-05T08:51:31.644Z,11.95
2019-04-05T08:54:01.068Z,11.98
2019-04-05T08:56:30.654Z,11.99
2019-04-05T08:59:00.211Z,12.02
2019-04-05T09:01:29.723Z,12.03
2019-04-05T09:03:59.174Z,12.05
2019-04-05T09:06:28.665Z,12.10
2019-04-05T09:08:58.127Z,12.15
2019-04-05T09:11:27.620Z,12.21
2019-04-05T09:13:57.108Z,12.25
2019-04-05T09:16:26.644Z,12.29
2019-04-05T09:18:56.209Z,12.34
2019-04-05T09:21:25.675Z,12.38
2019-04-05T09:23:55.163Z,12.40
2019-04-05T09:26:24.727Z,12.42
2019-04-05T09:28:54.218Z,12.42
2019-04-05T09:31:23.781Z,12.43
2019-04-05T09:33:53.277Z,12.42
2019-04-05T09:36:22.815Z,12.37
2019-04-05T09:38:52.332Z,12.35
2019-04-05T09:41:21.791Z,12.35
2019-04-05T09:43:51.249Z,12.37
2019-04-05T09:46:20.796Z,12.41
2019-04-05T09:48:50.408Z,12.49
2019-04-05T09:51:19.900Z,12.60
2019-04-05T09:53:49.404Z,12.70
2019-04-05T09:56:18.855Z,12.79
2019-04-05T09:58:48.427Z,12.86
2019-04-05T10:01:17.916Z,12.94
2019-04-05T10:03:47.661Z,12.99
2019-04-05T10:06:17.138Z,13.05
2019-04-05T10:08:46.652Z,13.09
2019-04-05T10:11:16.104Z,13.13
2019-04-05T10:13:45.666Z,13.19
2019-04-05T10:16:15.195Z,13.27
2019-04-05T10:18:44.662Z,13.35
2019-04-05T10:21:14.301Z,13.45
2019-04-05T10:23:43.769Z,13.55
2019-04-05T10:26:13.314Z,13.65
2019-04-05T10:28:42.787Z,13.74
2019-04-05T10:31:12.403Z,13.83
2019-04-05T10:33:41.898Z,13.89
2019-04-05T10:36:11.361Z,13.96
2019-04-05T10:38:40.881Z,14.02
2019-04-05T10:41:10.397Z,14.05
2019-04-05T10:43:39.958Z,14.09
2019-04-05T10:46:10.006Z,14.10
2019-04-05T10:48:39.536Z,14.08
2019-04-05T10:51:09.011Z,14.08
2019-04-05T10:53:38.543Z,14.08
2019-04-05T10:56:08.172Z,14.08
2019-04-05T10:58:37.731Z,14.11
2019-04-05T11:01:07.412Z,14.11
2019-04-05T11:03:36.894Z,14.13
2019-04-05T11:06:06.486Z,14.13
2019-04-05T11:08:36.045Z,14.11
2019-04-05T11:11:05.590Z,14.07
2019-04-05T11:13:35.087Z,14.06
2019-04-05T11:16:04.805Z,14.02
2019-04-05T11:18:34.373Z,13.98
2019-04-05T11:21:03.939Z,13.93
2019-04-05T11:23:33.419Z,13.91
2019-04-05T11:26:02.930Z,13.88
2019-04-05T11:28:32.484Z,13.85
2019-04-05T11:31:01.939Z,13.82
2019-04-05T11:33:31.508Z,13.78
2019-04-05T11:36:01.050Z,13.75
2019-04-05T11:38:31.278Z,13.74
2019-04-05T11:41:01.209Z,13.76
2019-04-05T11:43:33.579Z,13.77
2019-04-05T11:46:03.319Z,13.77
2019-04-05T11:48:33.219Z,13.79
2019-04-05T11:51:02.778Z,13.79
2019-04-05T11:53:32.247Z,13.77
2019-04-05T11:56:13.930Z,13.76
2019-04-05T11:58:33.090Z,13.75
2019-04-05T12:01:06.659Z,13.75
2019-04-05T12:03:36.307Z,13.75
2019-04-05T12:06:05.790Z,13.74
2019-04-05T12:08:35.262Z,13.74
2019-04-05T12:11:05.022Z,13.72
2019-04-05T12:13:34.520Z,13.68
2019-04-05T12:16:06.118Z,13.63
2019-04-05T12:18:35.529Z,13.58
2019-04-05T12:21:05.918Z,13.53
2019-04-05T12:23:35.421Z,13.50
2019-04-05T12:26:05.090Z,13.50
2019-04-05T12:28:34.601Z,13.48
2019-04-05T12:31:04.207Z,13.44
2019-04-05T12:33:33.761Z,13.41
2019-04-05T12:36:03.822Z,13.37
2019-04-05T12:38:34.050Z,13.31
2019-04-05T12:41:04.723Z,13.23
2019-04-05T12:43:35.327Z,13.17
2019-04-05T12:46:05.368Z,13.12
2019-04-05T12:48:34.937Z,13.07
2019-04-05T12:51:05.623Z,13.03
2019-04-05T12:53:35.470Z,12.97
2019-04-05T12:56:05.745Z,12.93
2019-04-05T12:58:35.246Z,12.88
2019-04-05T13:01:04.826Z,12.84
2019-04-05T13:03:34.585Z,12.80
2019-04-05T13:06:04.112Z,12.77
2019-04-05T13:08:33.604Z,12.74
2019-04-05T13:11:03.105Z,12.72
2019-04-05T13:13:32.833Z,12.72
2019-04-05T13:16:02.345Z,12.71
2019-04-05T13:18:31.900Z,12.70
2019-04-05T13:21:09.380Z,12.69
2019-04-05T13:23:33.767Z,12.69
2019-04-05T13:26:04.200Z,12.68
2019-04-05T13:28:33.744Z,12.66
2019-04-05T13:31:03.227Z,12.66
2019-04-05T13:33:32.703Z,12.65
2019-04-05T13:36:02.196Z,12.65
2019-04-05T13:38:31.685Z,12.66
2019-04-05T13:41:02.062Z,12.66
2019-04-05T13:43:32.618Z,12.66
2019-04-05T13:46:02.312Z,12.65
2019-04-05T13:48:31.807Z,12.65
2019-04-05T13:51:01.385Z,12.66
2019-04-05T13:53:30.857Z,12.70
2019-04-05T13:56:00.996Z,12.74
2019-04-05T13:58:30.475Z,12.76
2019-04-05T14:00:59.984Z,12.78
2019-04-05T14:03:29.459Z,12.78
2019-04-05T14:05:59.003Z,12.79
2019-04-05T14:08:28.487Z,12.77
2019-04-05T14:10:58.002Z,12.74
2019-04-05T14:13:27.477Z,12.71
2019-04-05T14:15:57.050Z,12.68
2019-04-05T14:18:26.548Z,12.66
2019-04-05T14:20:56.009Z,12.64
2019-04-05T14:23:26.487Z,12.64
2019-04-05T14:25:59.519Z,12.62
2019-04-05T14:28:27.287Z,12.61
2019-04-05T14:30:56.841Z,12.60
2019-04-05T14:33:26.310Z,12.60
2019-04-05T14:35:55.815Z,12.58
2019-04-05T14:38:25.294Z,12.58
2019-04-05T14:40:54.839Z,12.57
2019-04-05T14:43:24.306Z,12.56
2019-04-05T14:45:53.862Z,12.53
2019-04-05T14:48:23.446Z,12.50
2019-04-05T14:50:52.992Z,12.50
2019-04-05T14:53:22.541Z,12.50
2019-04-05T14:55:52.075Z,12.50
2019-04-05T14:58:21.559Z,12.51
2019-04-05T15:00:51.074Z,12.51
2019-04-05T15:03:20.589Z,12.51
2019-04-05T15:05:50.271Z,12.50
2019-04-05T15:08:20.721Z,12.48
2019-04-05T15:10:51.435Z,12.46
2019-04-05T15:13:21.105Z,12.46
2019-04-05T15:15:50.658Z,12.44
2019-04-05T15:18:24.219Z,12.42
2019-04-05T15:20:51.512Z,12.41
2019-04-05T15:23:20.984Z,12.37
2019-04-05T15:25:50.580Z,12.35
2019-04-05T15:28:20.142Z,12.33
2019-04-05T15:30:49.827Z,12.31
2019-04-05T15:33:19.496Z,12.29
2019-04-05T15:35:49.058Z,12.27
2019-04-05T15:38:18.580Z,12.25
2019-04-05T15:40:48.145Z,12.22
2019-04-05T15:43:18.506Z,12.19
2019-04-05T15:45:48.023Z,12.15
2019-04-05T15:48:17.535Z,12.14
2019-04-05T15:50:47.082Z,12.11
2019-04-05T15:53:16.566Z,12.09
2019-04-05T15:55:46.108Z,12.06
2019-04-05T15:58:15.676Z,12.05
2019-04-05T16:00:45.833Z,12.03
2019-04-05T16:03:16.362Z,12.00
2019-04-05T16:05:46.671Z,11.98
2019-04-05T16:08:18.525Z,11.94
2019-04-05T16:10:48.618Z,11.90
2019-04-05T16:13:18.113Z,11.87
2019-04-05T16:15:47.997Z,11.84
2019-04-05T16:18:17.599Z,11.83
2019-04-05T16:20:47.118Z,11.80
2019-04-05T16:23:16.642Z,11.80
2019-04-05T16:25:46.230Z,11.79
2019-04-05T16:28:15.711Z,11.76
2019-04-05T16:30:45.285Z,11.74
2019-04-05T16:33:14.770Z,11.72
2019-04-05T16:35:44.410Z,11.70
2019-04-05T16:38:13.958Z,11.67
2019-04-05T16:40:43.598Z,11.63
2019-04-05T16:43:13.205Z,11.58
2019-04-05T16:45:42.789Z,11.53
2019-04-05T16:48:12.274Z,11.49
2019-04-05T16:50:42.427Z,11.47
2019-04-05T16:53:12.017Z,11.44
2019-04-05T16:55:41.562Z,11.43
2019-04-05T16:58:11.308Z,11.42
2019-04-05T17:00:40.804Z,11.42
2019-04-05T17:03:10.350Z,11.42
2019-04-05T17:05:39.840Z,11.44
2019-04-05T17:08:09.383Z,11.43
2019-04-05T17:10:38.883Z,11.43
2019-04-05T17:13:08.338Z,11.44
2019-04-05T17:15:37.882Z,11.45
2019-04-05T17:18:07.548Z,11.44
2019-04-05T17:20:37.100Z,11.44
2019-04-05T17:23:06.662Z,11.44
2019-04-05T17:25:36.128Z,11.43
2019-04-05T17:28:05.715Z,11.42
2019-04-05T17:30:36.316Z,11.41
2019-04-05T17:33:06.018Z,11.38
2019-04-05T17:35:35.525Z,11.36
2019-04-05T17:38:05.146Z,11.33
2019-04-05T17:40:34.646Z,11.31
2019-04-05T17:43:04.214Z,11.28
2019-04-05T17:45:33.744Z,11.26
2019-04-05T17:48:03.254Z,11.25
2019-04-05T17:50:34.518Z,11.23
2019-04-05T17:53:12.062Z,11.21
2019-04-05T17:55:35.806Z,11.19
2019-04-05T17:58:06.956Z,11.18
2019-04-05T18:00:36.919Z,11.15
2019-04-05T18:03:06.558Z,11.13
2019-04-05T18:05:36.199Z,11.11
2019-04-05T18:08:05.739Z,11.09
2019-04-05T18:10:35.301Z,11.08
2019-04-05T18:13:04.927Z,11.04
2019-04-05T18:15:34.523Z,11.04
2019-04-05T18:18:04.074Z,11.02
2019-04-05T18:20:33.645Z,11.01
2019-04-05T18:23:03.227Z,10.98
2019-04-05T18:25:32.914Z,10.96
2019-04-05T18:28:02.627Z,10.95
2019-04-05T18:30:32.129Z,10.95
2019-04-05T18:33:01.734Z,10.93
2019-04-05T18:35:31.261Z,10.93
2019-04-05T18:38:00.725Z,10.93
2019-04-05T18:40:39.518Z,10.92
2019-04-05T18:43:01.572Z,10.92
2019-04-05T18:45:33.488Z,10.91
2019-04-05T18:48:02.459Z,10.90
2019-04-05T18:50:32.043Z,10.88
2019-04-05T18:53:01.582Z,10.88
2019-04-05T18:55:31.186Z,10.88
2019-04-05T18:58:00.696Z,10.87
2019-04-05T19:00:30.263Z,10.87
2019-04-05T19:02:59.895Z,10.86
2019-04-05T19:05:29.450Z,10.86
2019-04-05T19:07:59.003Z,10.85
2019-04-05T19:10:36.852Z,10.85
2019-04-05T19:12:59.935Z,10.85
2019-04-05T19:15:29.381Z,10.85
2019-04-05T19:17:58.901Z,10.85
2019-04-05T19:20:28.363Z,10.85
2019-04-05T19:22:57.895Z,10.85
2019-04-05T19:25:27.381Z,10.85
2019-04-05T19:27:56.957Z,10.85
2019-04-05T19:50:36.915Z,10.81
2019-04-05T19:53:06.383Z,10.81
2019-04-05T19:55:36.499Z,10.82
2019-04-05T19:58:06.264Z,10.84
2019-04-05T20:00:35.814Z,10.83
2019-04-05T20:03:05.673Z,10.83
2019-04-05T20:05:35.135Z,10.83
2019-04-05T20:08:04.715Z,10.84
2019-04-05T20:10:34.214Z,10.85
2019-04-05T20:13:03.789Z,10.85
2019-04-05T20:15:33.265Z,10.85
2019-04-05T20:18:02.839Z,10.84
2019-04-05T20:20:32.309Z,10.83
2019-04-05T20:23:01.922Z,10.83
2019-04-05T20:25:31.402Z,10.82
2019-04-05T20:28:00.915Z,10.82
2019-04-05T20:30:30.504Z,10.82
2019-04-05T20:33:00.228Z,10.82
2019-04-05T20:35:29.819Z,10.81
2019-04-05T20:37:59.367Z,10.81
2019-04-05T20:40:28.873Z,10.81
2019-04-05T20:42:59.941Z,10.82
2019-04-05T20:45:29.612Z,10.81
2019-04-05T20:47:59.099Z,10.80
2019-04-05T20:50:28.639Z,10.79
2019-04-05T20:52:58.094Z,10.78
2019-04-05T20:55:27.586Z,10.78
2019-04-05T20:57:57.088Z,10.79
2019-04-05T21:00:26.564Z,10.78
2019-04-05T21:02:56.087Z,10.79
2019-04-05T21:05:25.874Z,10.80
2019-04-05T21:07:55.428Z,10.80
2019-04-05T21:10:24.893Z,10.81
2019-04-05T21:12:54.409Z,10.81
2019-04-05T21:15:23.923Z,10.82
2019-04-05T21:17:53.493Z,10.83
2019-04-05T21:20:22.980Z,10.83
2019-04-05T21:22:52.461Z,10.83
2019-04-05T21:25:21.956Z,10.82
2019-04-05T21:27:51.433Z,10.83
2019-04-05T21:30:21.079Z,10.81
2019-04-05T21:32:50.543Z,10.82
2019-04-05T21:35:20.067Z,10.80
2019-04-05T21:37:49.542Z,10.80
2019-04-05T21:40:19.125Z,10.78
2019-04-05T21:42:48.626Z,10.79
2019-04-05T21:45:18.198Z,10.78
2019-04-05T21:47:47.761Z,10.77
2019-04-05T21:50:17.328Z,10.77
2019-04-05T21:52:46.817Z,10.77
2019-04-05T21:55:16.295Z,10.76
2019-04-05T21:57:45.790Z,10.75
2019-04-05T22:00:25.824Z,10.74
2019-04-05T22:02:55.468Z,10.72
2019-04-05T22:05:24.995Z,10.69
2019-04-05T22:07:54.529Z,10.71
2019-04-05T22:10:24.026Z,10.69
2019-04-05T22:12:53.515Z,10.68
2019-04-05T22:15:22.992Z,10.66
2019-04-05T22:17:52.501Z,10.65
2019-04-05T22:20:21.962Z,10.63
2019-04-05T22:22:51.454Z,10.63
2019-04-05T22:25:20.912Z,10.62
2019-04-05T22:27:52.057Z,10.62
2019-04-05T22:30:21.560Z,10.63
2019-04-05T22:32:51.023Z,10.63
2019-04-05T22:35:20.508Z,10.63
2019-04-05T22:37:50.008Z,10.64
2019-04-05T22:40:19.464Z,10.64
2019-04-05T22:42:48.955Z,10.65
2019-04-05T22:45:18.537Z,10.65
2019-04-05T22:47:48.021Z,10.65
2019-04-05T22:50:17.571Z,10.64
2019-04-05T22:52:47.050Z,10.64
2019-04-05T22:55:16.524Z,10.64
2019-04-05T22:57:46.023Z,10.63
2019-04-05T23:00:17.418Z,10.64
2019-04-05T23:02:46.895Z,10.64
2019-04-05T23:05:16.350Z,10.65
2019-04-05T23:07:45.870Z,10.67
2019-04-05T23:10:17.215Z,10.66
2019-04-05T23:12:46.716Z,10.67
2019-04-05T23:15:16.318Z,10.67
2019-04-05T23:17:45.816Z,10.65
2019-04-05T23:20:15.627Z,10.64
2019-04-05T23:22:45.179Z,10.62
2019-04-05T23:25:21.745Z,10.63
2019-04-05T23:27:45.898Z,10.61
2019-04-05T23:30:18.131Z,10.62
2019-04-05T23:32:47.633Z,10.61
2019-04-05T23:35:17.105Z,10.61
2019-04-05T23:37:46.630Z,10.60
2019-04-05T23:40:16.211Z,10.62
2019-04-05T23:42:45.781Z,10.63
2019-04-05T23:45:15.429Z,10.65
2019-04-05T23:47:44.894Z,10.66
2019-04-05T23:50:14.534Z,10.69
2019-04-05T23:52:43.998Z,10.69
2019-04-05T23:55:13.648Z,10.70
2019-04-05T23:57:43.137Z,10.72
